• Join FlightAware (Why Join?)
  • Login
  • US Flag 
06:19PM EDT


 

Airport Tracker/Info


-or-


 

Live Flight TrackerFlight Track Log ✈ JIA2342 ✈ 28-Jul-2013 ✈ KDCA - KALB

Flight Track Log - Related Links

Times and Time Zones

All times are in EDT time to prevent confusion due to time zone crossing. See the JIA2342 flight status page for this flight to view local times or setup timezone preferences in your user account.

Time Position Orientation Groundspeed Altitude Reporting Facility
EDT Latitude Longitude Course Direction KTS MPH feet Rate Location/Type
08:09PM 39.3479 -77.2969 337° Northwest  Level FlightAware Approximate
08:10PM 39.4738 -77.3636 330° Northwest  Level FlightAware Approximate
08:11PM 39.6012 -77.4267 342° North  Level FlightAware Approximate
08:12PM 39.6711 -77.5693 297° West  Level FlightAware Approximate
08:13PM 39.7245 -77.7330 292° West  Level FlightAware Approximate
08:14PM 39.7753 -77.8983 292° West  Level FlightAware Approximate
08:15PM 39.8267 -78.0635 293° West  Level FlightAware Approximate
08:16PM 39.9107 -78.2034 310° West  Level FlightAware Approximate
08:17PM 40.0070 -78.3191 355° North  Level FlightAware Approximate
08:17PM 39.4786 -77.4361 356° North 368 423 21,000  Level Washington Center
08:18PM 40.1434 -78.3335 355° North  Level FlightAware Approximate
08:19PM 40.2799 -78.3479 355° North  Level FlightAware Approximate
08:19PM 39.7017 -77.4414 359° North 394 453 21,000  Level New York Center
08:20PM 40.4165 -78.3608 356° North  Level FlightAware Approximate
08:20PM 39.8206 -77.4419 360° North 411 473 21,000  Level New York Center
08:21PM 40.5531 -78.3736 356° North  Level FlightAware Approximate
08:21PM 39.9392 -77.4453 359° North 422 486 21,000  Level New York Center
08:22PM 40.6897 -78.3865 356° North  Level FlightAware Approximate
08:22PM 40.0603 -77.4458 360° North 422 486 21,000  Level New York Center
08:23PM 40.1944 -77.4289 North 427 491 21,000  Level New York Center
08:24PM 40.3139 -77.3858 15° North 427 491 21,000  Level New York Center
08:25PM 40.4278 -77.3206 24° Northeast 439 505 21,000  Level New York Center
08:26PM 40.5383 -77.2461 27° Northeast 445 512 21,000  Level New York Center
08:27PM 40.6531 -77.1694 27° Northeast 450 518 21,000  Level New York Center
08:28PM 40.7653 -77.0950 27° Northeast 450 518 21,000  Level New York Center
08:29PM 40.8800 -77.0178 27° Northeast 450 518 21,000  Level New York Center
08:30PM 40.9944 -76.9403 27° Northeast 450 518 21,000  Level New York Center
08:31PM 41.1067 -76.8650 27° Northeast 450 518 21,000  Level New York Center
08:32PM 41.1994 -76.8017 27° Northeast 450 518 21,000  Level New York Center
08:33PM 41.3225 -76.7189 27° Northeast 450 518 21,000  Level New York Center
08:34PM 41.4367 -76.6403 27° Northeast 450 518 21,000  Level New York Center
08:35PM 41.5511 -76.5617 27° Northeast 450 518 21,000  Level New York Center
08:36PM 41.6653 -76.4828 27° Northeast 450 518 21,000  Level New York Center
08:37PM 41.7792 -76.4061 27° Northeast 450 518 21,000  Level New York Center
08:40PM 42.0733 -76.1994 28° Northeast 468 539 21,000  Level Boston Center
08:41PM 42.1572 -76.1233 34° Northeast 463 533 21,000  Level Boston Center
08:42PM 42.2225 -75.9672 61° Northeast 430 495 21,000  Level Boston Center
08:43PM 42.2733 -75.8103 66° East 437 503 21,000  Level Boston Center
08:44PM 42.3300 -75.6447 65° Northeast 437 503 21,000  Level Boston Center
08:45PM 42.3844 -75.4900 64° Northeast 437 503 21,000  Level Boston Center
08:46PM 42.4342 -75.3378 66° East 442 509 21,000 -300 Level Boston Center
08:47PM 42.4800 -75.1767 69° East 448 516 20,400 -1,620 Descending Boston Center
08:48PM 42.5131 -75.0117 75° East 448 516 17,800 -2,580 Descending Boston Center
08:49PM 42.5436 -74.8525 75° East 442 509 15,400 -2,100 Descending Boston Center
08:50PM 42.5736 -74.7069 74° East 420 483 13,600 -1,740 Descending Boston Center
08:51PM 42.5947 -74.5919 76° East 365 420 12,000 -1,740 Descending Boston Center
08:52PM 42.6428 -74.4781 60° Northeast 321 369 10,100 -1,680 Descending Boston Center
08:53PM 42.6900 -74.3947 52° Northeast 306 352 8,600 -1,740 Descending Boston Center
08:54PM 42.7458 -74.3033 50° Northeast 293 337 6,700 -1,860 Descending Boston Center
08:55PM 42.7908 -74.2253 52° Northeast 288 331 5,000 -1,860 Descending Boston Center
08:56PM 42.8464 -74.1308 51° Northeast 288 331 3,100 -1,380 Descending Boston Center
08:56PM 42.8678 -74.0972 49° Northeast 271 312 3,000 -120 Descending Boston Center
08:57PM 42.8764 -74.0636 71° East 262 302 3,000  Level Boston Center
08:57PM 42.8856 -74.0183 75° East 197 227 3,000 -540 Level Boston Center
08:58PM 42.8881 -73.9761 85° East 216 249 2,500 -540 Descending Boston Center
08:58PM 42.8950 -73.9394 75° East 207 238 2,500 -360 Level Boston Center
08:59PM 42.9064 -73.8575 79° East 210 242 2,000 -300 Descending Boston Center
09:00PM 42.8694 -73.8139 139° Southeast 168 193 2,000 -180 Level Boston Center
09:01PM 42.8339 -73.8133 179° South 119 137 1,700 -540 Descending Boston Center
09:02PM 42.7944 -73.8094 176° South 128 147 1,000 -720 Descending Boston Center